createdAt,value
2022-09-05T00:00:02.069Z,17.20
2022-09-05T00:02:51.453Z,17.13
2022-09-05T00:05:38.561Z,17.07
2022-09-05T00:08:23.527Z,16.93
2022-09-05T00:11:16.712Z,16.92
2022-09-05T00:13:58.699Z,16.85
2022-09-05T00:16:47.108Z,16.80
2022-09-05T00:24:21.560Z,16.80
2022-09-05T00:24:34.455Z,16.75
2022-09-05T00:25:35.298Z,16.68
2022-09-05T00:28:14.573Z,16.62
2022-09-05T00:31:55.940Z,16.64
2022-09-05T00:34:47.799Z,16.60
2022-09-05T00:37:32.029Z,16.49
2022-09-05T00:40:20.606Z,16.32
2022-09-05T00:42:50.960Z,16.36
2022-09-05T00:45:25.304Z,16.37
2022-09-05T00:48:01.572Z,16.39
2022-09-05T00:50:37.569Z,16.07
2022-09-05T00:53:12.426Z,16.22
2022-09-05T00:55:48.789Z,15.89
2022-09-05T00:58:48.742Z,16.33
2022-09-05T01:01:33.289Z,16.16
2022-09-05T01:04:24.602Z,16.26
2022-09-05T01:07:10.411Z,16.25
2022-09-05T01:09:52.411Z,16.05
2022-09-05T01:12:36.326Z,15.40
2022-09-05T01:15:18.943Z,16.25
2022-09-05T01:18:04.435Z,16.23
2022-09-05T01:21:12.736Z,16.20
2022-09-05T01:24:04.290Z,16.21
2022-09-05T01:27:01.212Z,16.16
2022-09-05T01:29:41.541Z,16.22
2022-09-05T01:32:22.423Z,16.29
2022-09-05T01:35:20.462Z,16.26
2022-09-05T01:37:51.990Z,16.20
2022-09-05T01:40:29.031Z,16.09
2022-09-05T01:43:17.976Z,16.24
2022-09-05T01:45:51.316Z,16.21
2022-09-05T01:48:31.387Z,16.05
2022-09-05T01:51:28.890Z,15.53
2022-09-05T01:54:23.876Z,16.17
2022-09-05T01:57:06.141Z,15.95
2022-09-05T01:59:47.078Z,15.87
2022-09-05T02:02:25.244Z,15.06
2022-09-05T02:05:47.730Z,15.70
2022-09-05T02:08:41.727Z,15.70
2022-09-05T02:11:11.602Z,15.60
2022-09-05T02:13:52.375Z,15.63
2022-09-05T02:16:26.984Z,15.68
2022-09-05T02:19:05.448Z,15.68
2022-09-05T02:21:55.749Z,15.66
2022-09-05T02:24:29.305Z,15.60
2022-09-05T02:27:33.173Z,15.57
2022-09-05T02:30:13.825Z,13.49
2022-09-05T02:32:55.374Z,15.59
2022-09-05T02:35:32.072Z,15.54
2022-09-05T02:41:01.195Z,15.12
2022-09-05T02:45:14.351Z,15.45
2022-09-05T02:45:19.933Z,15.46
2022-09-05T02:46:51.168Z,15.46
2022-09-05T02:50:50.089Z,15.18
2022-09-05T02:57:29.247Z,15.46
2022-09-05T02:57:41.939Z,15.48
2022-09-05T02:58:42.766Z,15.43
2022-09-05T03:01:33.396Z,15.35
2022-09-05T03:04:17.154Z,15.30
2022-09-05T03:07:01.641Z,14.96
2022-09-05T03:09:41.563Z,15.34
2022-09-05T03:12:48.684Z,15.25
2022-09-05T03:15:45.452Z,15.13
2022-09-05T03:19:04.109Z,15.12
2022-09-05T03:22:22.617Z,15.09
2022-09-05T03:25:21.143Z,15.12
2022-09-05T03:28:15.099Z,15.06
2022-09-05T03:30:56.880Z,15.07
2022-09-05T03:34:03.428Z,15.01
2022-09-05T03:36:54.285Z,14.99
2022-09-05T03:40:16.771Z,15.06
2022-09-05T03:43:00.310Z,14.67
2022-09-05T03:45:58.956Z,15.02
2022-09-05T03:49:02.824Z,15.00
2022-09-05T03:57:06.920Z,14.88
2022-09-05T03:57:15.588Z,14.61
2022-09-05T03:58:56.227Z,14.78
2022-09-05T04:02:43.709Z,14.81
2022-09-05T04:08:26.467Z,14.90
2022-09-05T04:08:28.481Z,14.80
2022-09-05T04:10:30.599Z,14.97
2022-09-05T04:13:04.418Z,14.99
2022-09-05T04:15:38.182Z,15.08
2022-09-05T04:18:28.490Z,14.97
2022-09-05T04:21:06.145Z,15.13
2022-09-05T04:23:47.219Z,14.95
2022-09-05T04:26:31.259Z,14.73
2022-09-05T04:29:15.201Z,15.25
2022-09-05T04:31:56.292Z,15.23
2022-09-05T04:34:51.278Z,15.33
2022-09-05T04:37:48.167Z,15.44
2022-09-05T04:40:39.387Z,15.42
2022-09-05T04:43:14.737Z,15.34
2022-09-05T04:45:47.169Z,15.51
2022-09-05T04:48:21.648Z,15.56
2022-09-05T04:51:06.167Z,15.60
2022-09-05T04:53:56.555Z,15.60
2022-09-05T04:56:31.797Z,15.50
2022-09-05T05:01:13.188Z,15.60
2022-09-05T05:06:18.519Z,15.62
2022-09-05T05:06:18.703Z,15.71
2022-09-05T05:07:46.062Z,15.66
2022-09-05T05:12:22.520Z,15.53
2022-09-05T05:17:58.679Z,15.62
2022-09-05T05:18:09.410Z,15.75
2022-09-05T05:19:17.221Z,15.84
2022-09-05T05:21:50.304Z,15.75
2022-09-05T05:24:21.986Z,15.92
2022-09-05T05:26:57.307Z,15.96
2022-09-05T05:29:32.982Z,16.03
2022-09-05T05:32:07.695Z,16.01
2022-09-05T05:34:42.729Z,16.03
2022-09-05T05:37:20.369Z,15.74
2022-09-05T05:39:59.508Z,16.12
2022-09-05T05:42:27.712Z,16.00
2022-09-05T05:44:58.433Z,15.97
2022-09-05T05:47:31.882Z,16.06
2022-09-05T05:50:11.762Z,16.12
2022-09-05T05:53:03.122Z,16.18
2022-09-05T05:55:53.535Z,16.15
2022-09-05T05:58:47.270Z,16.24
2022-09-05T06:01:41.486Z,16.26
2022-09-05T06:04:49.144Z,16.35
2022-09-05T06:07:33.330Z,16.49
2022-09-05T06:14:51.252Z,16.75
2022-09-05T06:15:08.811Z,16.83
2022-09-05T06:17:28.579Z,16.92
2022-09-05T06:22:04.096Z,17.03
2022-09-05T06:23:54.105Z,17.07
2022-09-05T06:26:53.062Z,17.17
2022-09-05T06:29:38.649Z,17.25
2022-09-05T06:32:25.111Z,17.31
2022-09-05T06:35:19.904Z,17.24
2022-09-05T06:38:01.294Z,17.17
2022-09-05T06:40:35.964Z,17.13
2022-09-05T06:43:17.525Z,17.17
2022-09-05T06:46:07.633Z,17.35
2022-09-05T06:49:28.417Z,17.57
2022-09-05T06:52:16.516Z,17.72
2022-09-05T06:55:11.749Z,17.70
2022-09-05T06:58:10.811Z,17.61
2022-09-05T07:00:47.763Z,17.90
2022-09-05T07:03:43.027Z,18.05
2022-09-05T07:06:19.729Z,18.29
2022-09-05T07:08:54.009Z,18.36
2022-09-05T07:11:25.815Z,18.65
2022-09-05T07:14:03.394Z,18.53
2022-09-05T07:16:43.873Z,18.79
2022-09-05T07:19:27.081Z,18.80
2022-09-05T07:22:46.210Z,18.94
2022-09-05T07:25:18.309Z,18.90
2022-09-05T07:28:25.705Z,18.98
2022-09-05T07:30:48.937Z,18.98
2022-09-05T07:33:21.075Z,18.89
2022-09-05T07:35:51.619Z,19.03
2022-09-05T07:38:26.765Z,19.01
2022-09-05T07:41:24.286Z,19.44
2022-09-05T07:43:56.767Z,19.27
2022-09-05T07:46:27.724Z,19.61
2022-09-05T07:49:02.734Z,19.68
2022-09-05T07:56:46.019Z,20.06
2022-09-05T07:57:08.676Z,20.14
2022-09-05T07:57:31.377Z,20.50
2022-09-05T08:00:08.258Z,20.20
2022-09-05T08:02:55.055Z,20.24
2022-09-05T08:05:35.241Z,20.31
2022-09-05T08:08:08.958Z,20.25
2022-09-05T08:11:22.629Z,20.11
2022-09-05T08:13:51.537Z,20.20
2022-09-05T08:16:24.896Z,20.12
2022-09-05T08:18:57.481Z,20.74
2022-09-05T08:21:39.255Z,21.10
2022-09-05T08:24:13.763Z,21.46
2022-09-05T08:26:47.424Z,21.81
2022-09-05T08:29:27.474Z,22.02
2022-09-05T08:32:03.268Z,22.11
2022-09-05T08:34:45.260Z,22.28
2022-09-05T08:37:23.030Z,22.31
2022-09-05T08:39:58.317Z,22.32
2022-09-05T08:43:53.137Z,22.28
2022-09-05T08:46:46.453Z,22.50
2022-09-05T08:48:50.753Z,22.53
2022-09-05T08:51:35.195Z,22.79
2022-09-05T08:54:19.863Z,23.00
2022-09-05T08:57:01.968Z,23.01
2022-09-05T09:00:06.300Z,23.07
2022-09-05T09:03:04.878Z,23.20
2022-09-05T09:06:17.816Z,23.39
2022-09-05T09:09:11.476Z,23.69
2022-09-05T09:11:57.542Z,23.64
2022-09-05T09:14:58.395Z,24.06
2022-09-05T09:17:42.941Z,24.12
2022-09-05T09:20:33.630Z,24.20
2022-09-05T09:23:06.400Z,24.45
2022-09-05T09:25:42.586Z,24.26
2022-09-05T09:28:51.754Z,24.14
2022-09-05T09:31:44.137Z,24.20
2022-09-05T09:34:38.185Z,23.81
2022-09-05T09:37:51.885Z,24.24
2022-09-05T09:41:02.360Z,24.47
2022-09-05T09:43:58.663Z,24.70
2022-09-05T09:46:39.537Z,24.45
2022-09-05T09:49:23.661Z,24.58
2022-09-05T09:52:29.052Z,24.73
2022-09-05T09:55:41.112Z,24.74
2022-09-05T09:58:37.981Z,24.73
2022-09-05T10:01:35.865Z,24.76
2022-09-05T10:09:46.207Z,24.93
2022-09-05T10:10:48.194Z,24.83
2022-09-05T10:11:52.106Z,25.23
2022-09-05T10:14:47.873Z,25.34
2022-09-05T10:18:15.642Z,25.26
2022-09-05T10:21:15.027Z,25.62
2022-09-05T10:24:28.170Z,26.07
2022-09-05T10:27:20.927Z,25.94
2022-09-05T10:30:06.381Z,25.89
2022-09-05T10:35:16.997Z,25.77
2022-09-05T10:35:59.893Z,25.78
2022-09-05T10:38:40.286Z,25.72
2022-09-05T10:41:21.821Z,25.78
2022-09-05T10:43:55.425Z,25.77
2022-09-05T10:46:54.481Z,25.10
2022-09-05T10:49:30.156Z,25.59
2022-09-05T10:52:13.134Z,25.69
2022-09-05T10:55:13.634Z,25.76
2022-09-05T10:57:57.341Z,25.88
2022-09-05T11:02:20.818Z,26.08
2022-09-05T11:03:46.712Z,26.22
2022-09-05T11:06:24.648Z,26.36
2022-09-05T11:09:03.277Z,26.04
2022-09-05T11:11:46.142Z,25.80
2022-09-05T11:14:46.499Z,26.09
2022-09-05T11:17:26.863Z,26.33
2022-09-05T11:20:07.496Z,26.24
2022-09-05T11:22:54.269Z,26.29
2022-09-05T11:25:40.008Z,26.40
2022-09-05T11:28:16.034Z,26.38
2022-09-05T11:30:52.064Z,26.47
2022-09-05T11:39:50.617Z,26.64
2022-09-05T11:40:09.702Z,26.99
2022-09-05T11:40:38.216Z,27.02
2022-09-05T11:43:39.188Z,26.77
2022-09-05T11:46:30.146Z,26.64
2022-09-05T11:49:34.969Z,26.52
2022-09-05T11:52:35.245Z,26.67
2022-09-05T11:55:24.635Z,26.33
2022-09-05T11:58:43.930Z,26.63
2022-09-05T12:01:41.199Z,26.68
2022-09-05T12:04:26.072Z,26.62
2022-09-05T12:07:33.700Z,26.67
2022-09-05T12:10:47.279Z,26.62
2022-09-05T12:13:29.293Z,26.76
2022-09-05T12:16:07.528Z,26.88
2022-09-05T12:18:45.772Z,26.90
2022-09-05T12:21:27.422Z,26.96
2022-09-05T12:24:54.966Z,27.33
2022-09-05T12:27:39.633Z,26.97
2022-09-05T12:29:54.256Z,27.53
2022-09-05T12:33:52.404Z,27.37
2022-09-05T12:36:11.793Z,27.31
2022-09-05T12:39:40.253Z,27.35
2022-09-05T12:41:44.626Z,27.47
2022-09-05T12:44:38.435Z,27.32
2022-09-05T12:47:19.133Z,27.68
2022-09-05T12:50:02.743Z,27.48
2022-09-05T12:52:43.322Z,27.92
2022-09-05T12:55:20.172Z,28.09
2022-09-05T13:02:57.033Z,28.40
2022-09-05T13:03:13.207Z,28.48
2022-09-05T13:03:59.354Z,28.46
2022-09-05T13:06:31.082Z,28.60
2022-09-05T13:09:06.975Z,27.92
2022-09-05T13:15:02.800Z,28.04
2022-09-05T13:15:07.637Z,28.07
2022-09-05T13:17:50.522Z,28.22
2022-09-05T13:20:22.266Z,28.12
2022-09-05T13:22:54.267Z,27.92
2022-09-05T13:25:27.051Z,28.15
2022-09-05T13:28:02.038Z,28.08
2022-09-05T13:37:56.483Z,28.29
2022-09-05T13:37:59.737Z,28.28
2022-09-05T13:38:11.251Z,28.25
2022-09-05T13:39:12.214Z,28.15
2022-09-05T13:41:49.520Z,28.13
2022-09-05T13:44:27.677Z,28.17
2022-09-05T13:47:00.865Z,28.41
2022-09-05T13:49:33.295Z,28.34
2022-09-05T13:52:25.827Z,28.33
2022-09-05T13:55:04.363Z,28.36
2022-09-05T13:57:39.357Z,28.04
2022-09-05T14:00:46.770Z,28.11
2022-09-05T14:04:04.519Z,28.18
2022-09-05T14:10:24.306Z,28.14
2022-09-05T14:13:02.532Z,28.13
2022-09-05T14:15:41.052Z,28.07
2022-09-05T14:18:21.197Z,27.61
2022-09-05T14:21:13.718Z,28.13
2022-09-05T14:23:48.507Z,28.25
2022-09-05T14:26:23.602Z,28.43
2022-09-05T14:29:03.285Z,28.32
2022-09-05T14:36:16.566Z,28.51
2022-09-05T14:37:42.038Z,28.14
2022-09-05T14:38:11.685Z,28.29
2022-09-05T14:41:31.714Z,28.39
2022-09-05T14:44:41.220Z,28.16
2022-09-05T14:47:35.042Z,28.19
2022-09-05T14:50:21.127Z,28.19
2022-09-05T14:56:44.379Z,28.24
2022-09-05T15:02:49.555Z,28.51
2022-09-05T15:02:49.758Z,28.34
2022-09-05T15:04:36.262Z,28.41
2022-09-05T15:07:15.722Z,28.21
2022-09-05T15:12:14.944Z,28.31
2022-09-05T15:12:43.929Z,28.23
2022-09-05T15:15:25.751Z,28.26
2022-09-05T15:17:59.806Z,28.17
2022-09-05T15:20:31.181Z,27.97
2022-09-05T15:23:11.063Z,27.99
2022-09-05T15:25:47.123Z,27.89
2022-09-05T15:28:23.003Z,27.31
2022-09-05T15:31:00.047Z,27.66
2022-09-05T15:33:31.087Z,27.66
2022-09-05T15:36:00.807Z,27.50
2022-09-05T15:38:46.298Z,27.42
2022-09-05T15:41:24.687Z,27.55
2022-09-05T15:44:09.497Z,27.62
2022-09-05T15:46:47.408Z,27.36
2022-09-05T15:49:29.372Z,27.12
2022-09-05T15:52:00.048Z,27.29
2022-09-05T15:54:37.459Z,27.15
2022-09-05T15:57:18.133Z,27.10
2022-09-05T15:59:49.705Z,27.10
2022-09-05T16:02:24.507Z,26.92
2022-09-05T16:10:34.677Z,26.94
2022-09-05T16:10:40.247Z,27.07
2022-09-05T16:12:07.435Z,27.14
2022-09-05T16:14:24.335Z,27.03
2022-09-05T16:23:18.192Z,26.86
2022-09-05T16:23:25.292Z,26.99
2022-09-05T16:23:31.627Z,26.84
2022-09-05T16:25:34.776Z,27.01
2022-09-05T16:28:06.321Z,27.03
2022-09-05T16:30:36.536Z,26.90
2022-09-05T16:33:09.299Z,26.84
2022-09-05T16:35:43.107Z,26.63
2022-09-05T16:38:25.825Z,26.76
2022-09-05T16:41:14.372Z,26.17
2022-09-05T16:43:50.079Z,26.74
2022-09-05T16:46:23.681Z,26.62
2022-09-05T16:48:58.548Z,26.62
2022-09-05T16:51:36.486Z,26.47
2022-09-05T16:54:13.343Z,26.49
2022-09-05T16:56:46.020Z,26.43
2022-09-05T16:59:17.700Z,26.47
2022-09-05T17:02:10.051Z,26.40
2022-09-05T17:05:02.949Z,26.34
2022-09-05T17:07:47.088Z,26.24
2022-09-05T17:10:20.507Z,26.18
2022-09-05T17:12:52.333Z,25.92
2022-09-05T17:15:23.606Z,25.82
2022-09-05T17:18:19.790Z,25.92
2022-09-05T17:20:50.740Z,26.00
2022-09-05T17:28:44.469Z,25.88
2022-09-05T17:29:19.341Z,25.80
2022-09-05T17:32:47.154Z,25.62
2022-09-05T17:35:42.847Z,25.51
2022-09-05T17:38:47.799Z,25.53
2022-09-05T17:41:43.326Z,25.46
2022-09-05T17:44:19.387Z,25.23
2022-09-05T17:47:07.045Z,24.87
2022-09-05T17:49:45.800Z,25.27
2022-09-05T17:52:22.879Z,25.16
2022-09-05T17:54:55.323Z,25.10
2022-09-05T17:57:45.453Z,25.00
2022-09-05T18:01:04.504Z,25.00
2022-09-05T18:04:17.955Z,24.93
2022-09-05T18:06:59.503Z,24.03
2022-09-05T18:10:11.888Z,24.79
2022-09-05T18:16:13.329Z,24.77
2022-09-05T18:19:32.787Z,24.63
2022-09-05T18:21:50.463Z,24.55
2022-09-05T18:27:30.982Z,24.53
2022-09-05T18:30:29.141Z,24.48
2022-09-05T18:33:55.516Z,24.41
2022-09-05T18:36:36.046Z,24.36
2022-09-05T18:39:43.254Z,24.51
2022-09-05T18:42:25.994Z,24.13
2022-09-05T18:45:14.769Z,24.26
2022-09-05T18:47:53.131Z,24.21
2022-09-05T18:50:32.313Z,24.33
2022-09-05T18:53:10.531Z,24.25
2022-09-05T18:56:12.182Z,23.13
2022-09-05T18:58:52.200Z,24.10
2022-09-05T19:01:33.894Z,24.14
2022-09-05T19:04:09.790Z,23.60
2022-09-05T19:07:07.915Z,24.02
2022-09-05T19:09:40.208Z,24.07
2022-09-05T19:12:33.861Z,24.06
2022-09-05T19:15:08.566Z,23.98
2022-09-05T19:17:47.113Z,23.54
2022-09-05T19:20:32.202Z,23.88
2022-09-05T19:23:10.314Z,23.78
2022-09-05T19:25:42.742Z,23.76
2022-09-05T19:36:45.970Z,23.67
2022-09-05T19:36:46.370Z,23.71
2022-09-05T19:37:04.608Z,23.47
2022-09-05T19:43:42.819Z,23.46
2022-09-05T19:47:33.996Z,23.41
2022-09-05T19:47:50.724Z,23.42
2022-09-05T19:48:19.159Z,23.27
2022-09-05T19:50:48.247Z,22.90
2022-09-05T19:53:19.681Z,23.30
2022-09-05T19:55:48.585Z,23.17
2022-09-05T19:58:20.904Z,23.20
2022-09-05T20:01:02.213Z,22.98
2022-09-05T20:03:39.500Z,23.10
2022-09-05T20:06:28.770Z,23.07
2022-09-05T20:09:16.896Z,23.01
2022-09-05T20:11:49.981Z,22.68
2022-09-05T20:14:21.068Z,22.87
2022-09-05T20:16:50.458Z,23.01
2022-09-05T20:19:28.397Z,22.92
2022-09-05T20:21:59.408Z,22.77
2022-09-05T20:24:41.499Z,22.77
2022-09-05T20:27:10.100Z,22.71
2022-09-05T20:29:56.426Z,22.65
2022-09-05T20:32:39.892Z,22.22
2022-09-05T20:38:34.276Z,22.56
2022-09-05T20:43:24.924Z,22.57
2022-09-05T20:43:31.023Z,22.25
2022-09-05T20:43:56.502Z,22.42
2022-09-05T20:51:18.570Z,22.38
2022-09-05T20:54:14.956Z,22.18
2022-09-05T20:54:19.060Z,22.21
2022-09-05T20:55:40.247Z,22.18
2022-09-05T20:58:16.324Z,21.87
2022-09-05T21:01:20.125Z,21.99
2022-09-05T21:03:41.007Z,21.95
2022-09-05T21:06:22.137Z,21.96
2022-09-05T21:08:51.291Z,22.01
2022-09-05T21:11:30.279Z,22.06
2022-09-05T21:14:03.557Z,22.12
2022-09-05T21:16:35.613Z,21.91
2022-09-05T21:19:03.984Z,21.94
2022-09-05T21:21:34.733Z,21.88
2022-09-05T21:24:17.922Z,21.60
2022-09-05T21:26:49.320Z,21.54
2022-09-05T21:29:32.379Z,21.47
2022-09-05T21:32:04.009Z,21.17
2022-09-05T21:34:44.911Z,21.19
2022-09-05T21:37:15.458Z,21.16
2022-09-05T21:39:58.421Z,21.24
2022-09-05T21:46:53.496Z,21.00
2022-09-05T21:47:41.946Z,21.23
2022-09-05T21:48:08.895Z,21.15
2022-09-05T21:50:41.157Z,21.16
2022-09-05T21:57:11.470Z,21.29
2022-09-05T21:59:30.518Z,21.26
2022-09-05T21:59:33.665Z,21.01
2022-09-05T22:01:58.364Z,21.05
2022-09-05T22:04:26.733Z,21.09
2022-09-05T22:07:03.405Z,20.73
2022-09-05T22:09:31.985Z,21.00
2022-09-05T22:12:00.055Z,20.84
2022-09-05T22:14:34.403Z,20.96
2022-09-05T22:17:04.869Z,20.84
2022-09-05T22:19:37.829Z,20.85
2022-09-05T22:22:16.260Z,20.63
2022-09-05T22:24:51.806Z,20.73
2022-09-05T22:27:22.530Z,20.65
2022-09-05T22:29:51.872Z,20.80
2022-09-05T22:32:33.807Z,20.74
2022-09-05T22:35:28.052Z,20.76
2022-09-05T22:37:59.073Z,20.71
2022-09-05T22:40:27.682Z,20.68
2022-09-05T22:42:56.972Z,20.61
2022-09-05T22:45:25.003Z,20.68
2022-09-05T22:47:54.986Z,20.61
2022-09-05T22:50:23.373Z,20.58
2022-09-05T22:52:51.646Z,20.52
2022-09-05T22:55:19.714Z,20.62
2022-09-05T22:57:48.143Z,20.15
2022-09-05T23:00:16.609Z,20.27
2022-09-05T23:02:47.884Z,20.37
2022-09-05T23:05:19.584Z,19.73
2022-09-05T23:07:47.522Z,19.82
2022-09-05T23:10:15.568Z,19.07
2022-09-05T23:12:43.402Z,20.27
2022-09-05T23:15:12.082Z,20.58
2022-09-05T23:17:40.048Z,20.42
2022-09-05T23:20:08.795Z,20.45
2022-09-05T23:22:38.920Z,20.51
2022-09-05T23:25:07.853Z,20.20
2022-09-05T23:27:36.749Z,20.63
2022-09-05T23:30:06.664Z,20.97
2022-09-05T23:32:35.466Z,20.91
2022-09-05T23:35:03.744Z,20.72
2022-09-05T23:37:31.834Z,20.98
2022-09-05T23:40:01.273Z,20.69
2022-09-05T23:42:29.345Z,21.05
2022-09-05T23:44:57.214Z,21.17
2022-09-05T23:47:25.237Z,21.21
2022-09-05T23:49:53.459Z,20.56
2022-09-05T23:52:21.726Z,21.16
2022-09-05T23:54:49.770Z,21.14
2022-09-05T23:57:23.649Z,21.12
2022-09-05T23:59:52.934Z,20.97
